createdAt,value
2022-07-26T00:00:16.886Z,62.83
2022-07-26T00:02:48.397Z,62.96
2022-07-26T00:05:18.266Z,63.13
2022-07-26T00:07:46.942Z,63.47
2022-07-26T00:10:14.708Z,63.50
2022-07-26T00:12:42.507Z,64.13
2022-07-26T00:15:11.256Z,63.99
2022-07-26T00:17:39.001Z,64.04
2022-07-26T00:20:07.054Z,64.37
2022-07-26T00:22:34.385Z,64.57
2022-07-26T00:25:07.764Z,64.46
2022-07-26T00:27:38.722Z,64.67
2022-07-26T00:30:07.114Z,64.97
2022-07-26T00:32:34.319Z,64.75
2022-07-26T00:35:01.628Z,65.17
2022-07-26T00:37:28.747Z,65.08
2022-07-26T00:39:56.436Z,65.18
2022-07-26T00:42:23.953Z,65.24
2022-07-26T00:44:51.694Z,65.11
2022-07-26T00:47:18.957Z,65.39
2022-07-26T00:49:47.514Z,65.28
2022-07-26T00:52:14.660Z,65.31
2022-07-26T00:54:45.678Z,65.50
2022-07-26T00:57:14.323Z,65.44
2022-07-26T00:59:44.921Z,65.36
2022-07-26T01:02:13.192Z,65.14
2022-07-26T01:04:44.776Z,65.33
2022-07-26T01:07:14.782Z,65.62
2022-07-26T01:09:43.299Z,65.04
2022-07-26T01:12:10.573Z,64.84
2022-07-26T01:14:38.359Z,65.24
2022-07-26T01:17:05.482Z,65.46
2022-07-26T01:19:33.018Z,65.68
2022-07-26T01:22:01.063Z,64.88
2022-07-26T01:24:27.974Z,65.14
2022-07-26T01:26:58.177Z,65.14
2022-07-26T01:29:36.202Z,64.88
2022-07-26T01:32:05.437Z,65.14
2022-07-26T01:34:33.002Z,65.62
2022-07-26T01:37:02.168Z,65.80
2022-07-26T01:39:29.698Z,65.70
2022-07-26T01:41:56.898Z,65.94
2022-07-26T01:44:24.357Z,65.84
2022-07-26T01:46:51.843Z,66.04
2022-07-26T01:49:19.114Z,66.24
2022-07-26T01:51:46.755Z,66.58
2022-07-26T01:54:13.721Z,66.59
2022-07-26T01:56:43.313Z,66.72
2022-07-26T01:59:10.437Z,66.83
2022-07-26T02:01:39.977Z,66.78
2022-07-26T02:04:09.371Z,67.01
2022-07-26T02:06:37.551Z,66.56
2022-07-26T02:09:07.493Z,66.81
2022-07-26T02:11:34.968Z,66.89
2022-07-26T02:14:03.085Z,66.95
2022-07-26T02:16:30.016Z,67.22
2022-07-26T02:18:57.977Z,67.23
2022-07-26T02:21:25.214Z,67.71
2022-07-26T02:23:54.460Z,67.54
2022-07-26T02:26:22.178Z,67.58
2022-07-26T02:28:49.918Z,67.81
2022-07-26T02:31:17.605Z,67.80
2022-07-26T02:33:44.355Z,67.99
2022-07-26T02:36:11.622Z,67.61
2022-07-26T02:38:38.556Z,67.44
2022-07-26T02:41:06.268Z,67.78
2022-07-26T02:43:33.542Z,67.76
2022-07-26T02:46:02.197Z,68.21
2022-07-26T02:48:32.524Z,68.25
2022-07-26T02:50:59.688Z,68.45
2022-07-26T02:53:27.400Z,69.16
2022-07-26T02:55:54.446Z,69.28
2022-07-26T02:58:24.994Z,69.36
2022-07-26T03:00:52.416Z,68.92
2022-07-26T03:03:19.298Z,69.88
2022-07-26T03:05:46.655Z,70.08
2022-07-26T03:08:13.725Z,70.24
2022-07-26T03:10:40.695Z,70.17
2022-07-26T03:13:08.004Z,70.56
2022-07-26T03:15:35.036Z,70.59
2022-07-26T03:18:02.636Z,70.57
2022-07-26T03:20:29.759Z,70.37
2022-07-26T03:22:57.140Z,70.77
2022-07-26T03:25:24.020Z,70.73
2022-07-26T03:27:51.156Z,71.04
2022-07-26T03:30:24.786Z,71.08
2022-07-26T03:32:54.309Z,71.32
2022-07-26T03:35:21.617Z,71.75
2022-07-26T03:37:48.779Z,73.59
2022-07-26T03:40:17.134Z,74.74
2022-07-26T03:42:45.908Z,74.95
2022-07-26T03:45:14.643Z,74.99
2022-07-26T03:47:42.509Z,74.75
2022-07-26T03:50:11.134Z,74.52
2022-07-26T03:52:38.382Z,74.48
2022-07-26T03:55:27.044Z,73.81
2022-07-26T03:57:54.148Z,73.88
2022-07-26T04:00:21.475Z,73.83
2022-07-26T04:02:48.847Z,74.38
2022-07-26T04:05:15.923Z,75.71
2022-07-26T04:07:53.206Z,76.87
2022-07-26T04:10:22.208Z,77.29
2022-07-26T04:12:50.354Z,77.36
2022-07-26T04:15:19.119Z,77.27
2022-07-26T04:17:48.248Z,77.74
2022-07-26T04:20:16.053Z,78.63
2022-07-26T04:22:43.760Z,78.80
2022-07-26T04:25:11.243Z,79.48
2022-07-26T04:27:38.762Z,79.76
2022-07-26T04:30:12.336Z,79.17
2022-07-26T04:32:42.293Z,80.57
2022-07-26T04:35:09.815Z,80.96
2022-07-26T04:37:45.140Z,79.57
2022-07-26T04:40:16.916Z,78.70
2022-07-26T04:42:43.708Z,79.83
2022-07-26T04:45:12.711Z,79.00
2022-07-26T04:47:44.429Z,78.97
2022-07-26T04:50:12.511Z,78.63
2022-07-26T04:52:40.424Z,79.09
2022-07-26T04:55:09.155Z,79.17
2022-07-26T04:57:36.497Z,78.83
2022-07-26T05:00:21.247Z,78.27
2022-07-26T05:02:55.069Z,78.87
2022-07-26T05:05:23.138Z,78.08
2022-07-26T05:07:53.230Z,78.13
2022-07-26T05:10:22.656Z,77.68
2022-07-26T05:12:50.298Z,78.43
2022-07-26T05:15:17.466Z,79.05
2022-07-26T05:17:44.839Z,78.05
2022-07-26T05:20:15.376Z,77.35
2022-07-26T05:22:42.689Z,77.42
2022-07-26T05:25:10.553Z,77.85
2022-07-26T05:27:39.056Z,77.14
2022-07-26T05:30:06.527Z,76.39
2022-07-26T05:32:33.430Z,77.45
2022-07-26T05:35:00.961Z,76.77
2022-07-26T05:37:27.987Z,76.68
2022-07-26T05:39:55.264Z,76.05
2022-07-26T05:42:22.505Z,75.94
2022-07-26T05:44:49.396Z,75.98
2022-07-26T05:47:17.633Z,76.25
2022-07-26T05:49:44.840Z,76.44
2022-07-26T05:52:13.480Z,75.17
2022-07-26T05:54:40.412Z,75.59
2022-07-26T05:57:07.873Z,75.68
2022-07-26T05:59:35.049Z,75.91
2022-07-26T06:02:01.986Z,75.93
2022-07-26T06:04:28.996Z,75.80
2022-07-26T06:06:56.313Z,75.33
2022-07-26T06:09:27.027Z,75.59
2022-07-26T06:11:54.441Z,75.15
2022-07-26T06:14:22.653Z,75.02
2022-07-26T06:16:49.890Z,74.89
2022-07-26T06:19:17.792Z,74.85
2022-07-26T06:21:46.088Z,74.69
2022-07-26T06:24:13.985Z,75.28
2022-07-26T06:26:41.055Z,75.11
2022-07-26T06:29:08.374Z,75.53
2022-07-26T06:31:35.967Z,75.35
2022-07-26T06:34:03.330Z,74.66
2022-07-26T06:36:31.333Z,74.78
2022-07-26T06:38:58.998Z,75.69
2022-07-26T06:41:27.053Z,75.26
2022-07-26T06:43:54.060Z,75.03
2022-07-26T06:46:22.262Z,75.09
2022-07-26T06:48:52.842Z,75.30
2022-07-26T06:51:23.968Z,74.86
2022-07-26T06:54:06.981Z,74.79
2022-07-26T06:56:34.096Z,74.87
2022-07-26T06:59:05.062Z,74.78
2022-07-26T07:01:51.344Z,74.80
2022-07-26T07:04:21.115Z,74.96
2022-07-26T07:06:48.399Z,75.50
2022-07-26T07:09:16.958Z,75.43
2022-07-26T07:11:44.476Z,74.71
2022-07-26T07:14:12.276Z,74.44
2022-07-26T07:16:40.077Z,74.52
2022-07-26T07:19:07.198Z,74.13
2022-07-26T07:21:34.036Z,74.06
2022-07-26T07:24:01.989Z,73.71
2022-07-26T07:26:29.262Z,73.73
2022-07-26T07:28:56.762Z,72.57
2022-07-26T07:31:30.632Z,71.91
2022-07-26T07:34:12.516Z,71.92
2022-07-26T07:36:42.033Z,71.48
2022-07-26T07:39:15.362Z,71.65
2022-07-26T07:41:47.758Z,70.60
2022-07-26T07:44:14.695Z,71.28
2022-07-26T07:46:41.685Z,70.53
2022-07-26T07:49:10.971Z,69.65
2022-07-26T07:51:38.420Z,69.09
2022-07-26T07:54:06.303Z,68.32
2022-07-26T07:56:34.567Z,67.97
2022-07-26T07:59:01.580Z,67.29
2022-07-26T08:01:39.875Z,65.57
2022-07-26T08:04:09.526Z,64.63
2022-07-26T08:06:37.202Z,65.34
2022-07-26T08:09:06.413Z,65.64
2022-07-26T08:11:34.213Z,64.61
2022-07-26T08:14:01.731Z,64.31
2022-07-26T08:16:33.758Z,63.93
2022-07-26T08:19:00.892Z,65.02
2022-07-26T08:21:30.290Z,63.71
2022-07-26T08:23:58.185Z,63.79
2022-07-26T08:26:25.384Z,63.86
2022-07-26T08:28:59.720Z,62.98
2022-07-26T08:31:29.167Z,63.37
2022-07-26T08:33:56.813Z,63.06
2022-07-26T08:36:32.182Z,62.49
2022-07-26T08:39:00.085Z,61.68
2022-07-26T08:41:28.797Z,62.41
2022-07-26T08:43:55.591Z,62.57
2022-07-26T08:46:25.953Z,60.72
2022-07-26T08:48:57.433Z,60.62
2022-07-26T08:51:32.311Z,59.18
2022-07-26T08:54:06.118Z,60.05
2022-07-26T08:56:35.786Z,60.43
2022-07-26T08:59:23.227Z,60.78
2022-07-26T09:02:04.353Z,60.89
2022-07-26T09:04:50.660Z,60.83
2022-07-26T09:07:19.049Z,60.54
2022-07-26T09:09:54.894Z,59.92
2022-07-26T09:12:26.922Z,58.78
2022-07-26T09:14:54.801Z,58.94
2022-07-26T09:17:25.534Z,59.04
2022-07-26T09:20:17.307Z,57.64
2022-07-26T09:23:10.040Z,56.77
2022-07-26T09:25:44.616Z,56.10
2022-07-26T09:28:29.801Z,56.04
2022-07-26T09:31:00.118Z,55.13
2022-07-26T09:33:44.347Z,55.39
2022-07-26T09:36:11.497Z,55.09
2022-07-26T09:38:46.277Z,54.27
2022-07-26T09:41:24.666Z,53.82
2022-07-26T09:43:54.207Z,52.32
2022-07-26T09:46:27.989Z,52.22
2022-07-26T09:49:12.249Z,54.14
2022-07-26T09:51:42.657Z,53.73
2022-07-26T09:54:11.660Z,53.65
2022-07-26T09:56:50.180Z,52.50
2022-07-26T09:59:23.047Z,52.75
2022-07-26T10:01:52.835Z,52.89
2022-07-26T10:04:22.461Z,52.32
2022-07-26T10:06:50.581Z,51.81
2022-07-26T10:09:19.284Z,51.45
2022-07-26T10:12:00.902Z,51.84
2022-07-26T10:14:38.797Z,52.34
2022-07-26T10:17:35.179Z,58.75
2022-07-26T10:20:38.270Z,60.54
2022-07-26T10:23:35.059Z,62.00
2022-07-26T10:26:04.369Z,62.96
2022-07-26T10:28:33.764Z,63.93
2022-07-26T10:31:23.489Z,64.58
2022-07-26T10:33:52.265Z,64.55
2022-07-26T10:36:26.551Z,66.35
2022-07-26T10:39:22.636Z,66.53
2022-07-26T10:41:58.636Z,65.61
2022-07-26T10:44:27.997Z,66.00
2022-07-26T10:47:10.199Z,65.82
2022-07-26T10:49:54.411Z,66.62
2022-07-26T10:52:27.590Z,66.84
2022-07-26T10:55:00.225Z,67.07
2022-07-26T10:57:35.711Z,66.72
2022-07-26T11:00:10.448Z,66.19
2022-07-26T11:02:38.056Z,66.82
2022-07-26T11:05:15.588Z,66.00
2022-07-26T11:07:59.197Z,64.06
2022-07-26T11:10:37.849Z,63.80
2022-07-26T11:13:06.464Z,62.97
2022-07-26T11:15:34.539Z,62.75
2022-07-26T11:18:21.382Z,63.00
2022-07-26T11:20:53.110Z,61.19
2022-07-26T11:23:24.514Z,61.90
2022-07-26T11:26:03.078Z,62.34
2022-07-26T11:28:30.402Z,62.45
2022-07-26T11:30:58.905Z,61.58
2022-07-26T11:33:38.914Z,61.46
2022-07-26T11:36:06.418Z,63.24
2022-07-26T11:38:52.199Z,61.72
2022-07-26T11:41:34.587Z,60.53
2022-07-26T11:44:03.976Z,59.94
2022-07-26T11:46:37.740Z,59.02
2022-07-26T11:49:12.733Z,59.68
2022-07-26T11:51:39.864Z,59.82
2022-07-26T11:54:07.002Z,58.97
2022-07-26T11:56:34.271Z,59.87
2022-07-26T11:59:05.743Z,60.92
2022-07-26T12:01:33.767Z,60.63
2022-07-26T12:04:01.669Z,59.96
2022-07-26T12:06:29.062Z,59.84
2022-07-26T12:08:58.438Z,59.29
2022-07-26T12:11:37.950Z,57.72
2022-07-26T12:14:05.330Z,57.59
2022-07-26T12:16:47.612Z,57.11
2022-07-26T12:19:17.214Z,58.12
2022-07-26T12:21:49.129Z,58.21
2022-07-26T12:24:39.419Z,56.90
